createdAt,value
2022-07-27T00:02:12.617Z,98279.00
2022-07-27T00:04:45.757Z,98273.69
2022-07-27T00:07:25.632Z,98282.25
2022-07-27T00:10:05.611Z,98281.56
2022-07-27T00:12:38.819Z,98281.06
2022-07-27T00:15:13.692Z,98282.16
2022-07-27T00:17:40.353Z,98285.84
2022-07-27T00:20:13.625Z,98284.25
2022-07-27T00:22:46.836Z,98287.78
2022-07-27T00:25:19.641Z,98281.50
2022-07-27T00:27:52.705Z,98286.50
2022-07-27T00:30:19.482Z,98283.13
2022-07-27T00:32:52.809Z,98286.81
2022-07-27T00:35:20.070Z,98281.50
2022-07-27T00:37:53.638Z,98283.59
2022-07-27T00:40:20.545Z,98281.50
2022-07-27T00:42:53.659Z,98283.41
2022-07-27T00:45:20.483Z,98277.97
2022-07-27T00:47:55.184Z,98274.22
2022-07-27T00:50:22.263Z,98272.19
2022-07-27T00:52:55.678Z,98278.41
2022-07-27T00:55:29.606Z,98273.31
2022-07-27T00:58:02.633Z,98260.25
2022-07-27T01:00:29.467Z,98270.91
2022-07-27T01:03:09.192Z,98270.25
2022-07-27T01:05:43.979Z,98270.66
2022-07-27T01:08:23.615Z,98267.31
2022-07-27T01:10:50.790Z,98264.00
2022-07-27T01:13:24.617Z,98264.00
2022-07-27T01:15:52.327Z,98272.69
2022-07-27T01:18:37.710Z,98273.72
2022-07-27T01:21:07.514Z,98273.13
2022-07-27T01:23:41.658Z,98271.50
2022-07-27T01:26:08.437Z,98274.78
2022-07-27T01:28:41.653Z,98278.09
2022-07-27T01:31:08.521Z,98283.09
2022-07-27T01:33:41.624Z,98284.13
2022-07-27T01:36:08.337Z,98284.38
2022-07-27T01:38:41.617Z,98280.41
2022-07-27T01:41:08.455Z,98280.19
2022-07-27T01:43:41.650Z,98276.66
2022-07-27T01:46:08.556Z,98272.34
2022-07-27T01:48:35.337Z,98268.69
2022-07-27T01:51:08.830Z,98270.56
2022-07-27T01:53:35.530Z,98267.84
2022-07-27T01:56:08.624Z,98263.91
2022-07-27T01:58:36.441Z,98266.38
2022-07-27T02:01:09.850Z,98264.56
2022-07-27T02:03:37.237Z,98263.75
2022-07-27T02:06:11.618Z,98258.41
2022-07-27T02:08:38.541Z,98253.63
2022-07-27T02:11:30.611Z,98252.19
2022-07-27T02:13:57.341Z,98248.50
2022-07-27T02:16:30.683Z,98253.91
2022-07-27T02:18:58.094Z,98247.91
2022-07-27T02:21:31.850Z,98240.88
2022-07-27T02:23:58.563Z,98239.81
2022-07-27T02:26:32.610Z,98241.91
2022-07-27T02:28:59.633Z,98252.09
2022-07-27T02:31:33.636Z,98246.88
2022-07-27T02:34:00.553Z,98248.50
2022-07-27T02:36:35.636Z,98249.78
2022-07-27T02:39:02.497Z,98248.19
2022-07-27T02:41:29.342Z,98249.81
2022-07-27T02:44:02.621Z,98246.97
2022-07-27T02:46:29.441Z,98247.34
2022-07-27T02:49:03.058Z,98249.06
2022-07-27T02:51:29.866Z,98238.13
2022-07-27T02:54:02.617Z,98246.00
2022-07-27T02:56:35.770Z,98246.22
2022-07-27T02:59:02.618Z,98242.97
2022-07-27T03:01:35.683Z,98244.88
2022-07-27T03:04:08.637Z,98248.84
2022-07-27T03:06:41.872Z,98256.75
2022-07-27T03:09:16.990Z,98262.91
2022-07-27T03:11:50.586Z,98264.78
2022-07-27T03:14:23.841Z,98270.56
2022-07-27T03:16:50.516Z,98265.38
2022-07-27T03:19:28.308Z,98268.66
2022-07-27T03:21:56.777Z,98265.59
2022-07-27T03:24:29.618Z,98267.41
2022-07-27T03:26:56.565Z,98266.19
2022-07-27T03:29:23.298Z,98271.38
2022-07-27T03:31:56.593Z,98275.06
2022-07-27T03:34:30.624Z,98271.56
2022-07-27T03:36:57.342Z,98269.50
2022-07-27T03:39:30.681Z,98271.16
2022-07-27T03:41:57.408Z,98271.38
2022-07-27T03:44:30.616Z,98272.66
2022-07-27T03:47:03.820Z,98280.28
2022-07-27T03:49:36.603Z,98296.66
2022-07-27T03:52:11.979Z,98287.75
2022-07-27T03:54:42.483Z,98283.63
2022-07-27T03:57:15.804Z,98292.53
2022-07-27T03:59:48.777Z,98294.78
2022-07-27T04:02:21.664Z,98286.91
2022-07-27T04:04:48.499Z,98286.50
2022-07-27T04:07:35.622Z,98283.56
2022-07-27T04:10:10.579Z,98279.25
2022-07-27T04:12:38.518Z,98278.44
2022-07-27T04:15:13.673Z,98281.53
2022-07-27T04:17:56.388Z,98267.81
2022-07-27T04:20:31.605Z,98262.22
2022-07-27T04:22:58.845Z,98273.59
2022-07-27T04:25:32.643Z,98270.50
2022-07-27T04:27:59.685Z,98270.31
2022-07-27T04:30:32.648Z,98276.34
2022-07-27T04:33:06.627Z,98269.28
2022-07-27T04:35:39.564Z,98280.69
2022-07-27T04:38:06.566Z,98280.28
2022-07-27T04:40:40.585Z,98278.66
2022-07-27T04:43:07.670Z,98284.28
2022-07-27T04:45:41.850Z,98295.34
2022-07-27T04:48:10.499Z,98288.25
2022-07-27T04:50:51.609Z,98279.13
2022-07-27T04:53:18.479Z,98283.22
2022-07-27T04:55:53.588Z,98275.38
2022-07-27T04:58:20.521Z,98287.75
2022-07-27T05:00:53.637Z,98280.06
2022-07-27T05:03:27.599Z,98279.44
2022-07-27T05:06:14.632Z,98275.06
2022-07-27T05:08:42.832Z,98281.28
2022-07-27T05:11:09.859Z,98280.25
2022-07-27T05:13:46.588Z,98287.06
2022-07-27T05:16:13.618Z,98282.88
2022-07-27T05:18:47.759Z,98285.16
2022-07-27T05:21:14.562Z,98291.78
2022-07-27T05:23:48.610Z,98294.66
2022-07-27T05:26:15.311Z,98285.97
2022-07-27T05:28:48.581Z,98287.81
2022-07-27T05:31:15.379Z,98285.28
2022-07-27T05:33:51.332Z,98275.91
2022-07-27T05:36:20.407Z,98275.84
2022-07-27T05:38:47.100Z,98287.38
2022-07-27T05:41:20.567Z,98279.13
2022-07-27T05:43:47.766Z,98294.19
2022-07-27T05:46:20.654Z,98291.09
2022-07-27T05:48:53.684Z,98286.44
2022-07-27T05:51:26.619Z,98286.38
2022-07-27T05:53:59.736Z,98293.94
2022-07-27T05:56:27.632Z,98295.63
2022-07-27T05:58:54.598Z,98296.28
2022-07-27T06:01:29.052Z,98297.28
2022-07-27T06:04:02.698Z,98293.38
2022-07-27T06:07:07.591Z,98290.47
2022-07-27T06:09:40.585Z,98288.97
2022-07-27T06:12:14.600Z,98288.53
2022-07-27T06:14:41.300Z,98279.78
2022-07-27T06:17:14.764Z,98281.56
2022-07-27T06:19:41.679Z,98279.06
2022-07-27T06:22:16.063Z,98280.28
2022-07-27T06:24:42.788Z,98282.28
2022-07-27T06:27:15.587Z,98288.31
2022-07-27T06:29:42.331Z,98283.72
2022-07-27T06:32:15.566Z,98284.50
2022-07-27T06:34:42.580Z,98272.69
2022-07-27T06:37:16.563Z,98270.28
2022-07-27T06:39:46.827Z,98276.53
2022-07-27T06:42:21.974Z,98276.56
2022-07-27T06:44:48.768Z,98276.06
2022-07-27T06:47:23.849Z,98276.44
2022-07-27T06:49:52.991Z,98277.03
2022-07-27T06:52:26.578Z,98287.31
2022-07-27T06:54:53.351Z,98276.38
2022-07-27T06:57:26.571Z,98283.22
2022-07-27T06:59:53.780Z,98278.03
2022-07-27T07:02:26.584Z,98276.97
2022-07-27T07:04:53.465Z,98269.34
2022-07-27T07:07:33.615Z,98265.16
2022-07-27T07:10:13.581Z,98258.94
2022-07-27T07:12:40.648Z,98265.75
2022-07-27T07:15:15.599Z,98259.00
2022-07-27T07:17:42.775Z,98263.16
2022-07-27T07:20:16.617Z,98263.75
2022-07-27T07:22:43.496Z,98262.94
2022-07-27T07:25:16.755Z,98256.56
2022-07-27T07:27:43.445Z,98253.88
2022-07-27T07:30:11.093Z,98258.34
2022-07-27T07:32:45.566Z,98255.31
2022-07-27T07:35:19.585Z,98252.50
2022-07-27T07:37:50.146Z,98242.38
2022-07-27T07:40:42.610Z,98247.78
2022-07-27T07:43:11.780Z,98245.00
2022-07-27T07:45:50.797Z,98241.72
2022-07-27T07:48:19.587Z,98247.38
2022-07-27T07:50:53.679Z,98246.00
2022-07-27T07:53:24.430Z,98249.72
2022-07-27T07:55:59.737Z,98241.19
2022-07-27T07:58:27.469Z,98236.63
2022-07-27T08:01:01.565Z,98253.31
2022-07-27T08:03:28.368Z,98251.41
2022-07-27T08:06:16.030Z,98246.59
2022-07-27T08:08:42.758Z,98240.63
2022-07-27T08:11:16.626Z,98241.34
2022-07-27T08:13:43.532Z,98243.47
2022-07-27T08:16:10.396Z,98251.72
2022-07-27T08:18:43.567Z,98250.09
2022-07-27T08:21:10.486Z,98245.50
2022-07-27T08:23:44.715Z,98247.25
2022-07-27T08:26:11.567Z,98240.44
2022-07-27T08:28:44.562Z,98241.72
2022-07-27T08:31:14.042Z,98234.53
2022-07-27T08:33:48.883Z,98241.97
2022-07-27T08:36:15.556Z,98242.53
2022-07-27T08:38:48.580Z,98241.81
2022-07-27T08:41:16.849Z,98238.66
2022-07-27T08:43:53.550Z,98234.19
2022-07-27T08:46:21.831Z,98232.41
2022-07-27T08:48:55.614Z,98230.88
2022-07-27T08:51:24.763Z,98232.38
2022-07-27T08:53:59.574Z,98226.81
2022-07-27T08:56:33.571Z,98228.94
2022-07-27T08:59:00.289Z,98237.38
2022-07-27T09:01:33.628Z,98231.63
2022-07-27T09:04:00.521Z,98229.28
2022-07-27T09:06:54.578Z,98227.56
2022-07-27T09:09:22.732Z,98223.63
2022-07-27T09:12:14.750Z,98229.28
2022-07-27T09:14:42.275Z,98223.91
2022-07-27T09:17:49.851Z,98230.34
2022-07-27T09:20:19.312Z,98232.25
2022-07-27T09:22:52.669Z,98230.75
2022-07-27T09:26:02.418Z,98234.06
2022-07-27T09:28:36.609Z,98232.31
2022-07-27T09:31:11.487Z,98236.88
2022-07-27T09:33:56.596Z,98235.00
2022-07-27T09:36:31.560Z,98233.94
2022-07-27T09:39:13.859Z,98240.50
2022-07-27T09:41:46.292Z,98238.13
2022-07-27T09:44:31.895Z,98231.16
2022-07-27T09:47:06.574Z,98236.75
2022-07-27T09:49:35.157Z,98246.94
2022-07-27T09:52:10.559Z,98245.38
2022-07-27T09:54:53.538Z,98243.56
2022-07-27T09:57:20.459Z,98243.47
2022-07-27T09:59:53.544Z,98241.66
2022-07-27T10:02:27.609Z,98235.72
2022-07-27T10:05:01.649Z,98241.31
2022-07-27T10:07:35.488Z,98244.59
2022-07-27T10:10:09.564Z,98241.97
2022-07-27T10:12:36.416Z,98254.13
2022-07-27T10:15:10.738Z,98253.47
2022-07-27T10:17:39.127Z,98257.91
2022-07-27T10:20:17.543Z,98243.22
2022-07-27T10:23:07.527Z,98243.53
2022-07-27T10:25:41.542Z,98251.69
2022-07-27T10:28:21.544Z,98241.66
2022-07-27T10:30:54.940Z,98246.59
2022-07-27T10:33:44.695Z,98250.34
2022-07-27T10:36:45.570Z,98251.41
2022-07-27T10:39:25.086Z,98246.84
2022-07-27T10:41:58.560Z,98247.72
2022-07-27T10:44:29.423Z,98239.19
2022-07-27T10:47:05.545Z,98244.94
2022-07-27T10:49:41.426Z,98235.22
2022-07-27T10:52:47.540Z,98243.94
2022-07-27T10:55:39.559Z,98233.41
2022-07-27T10:58:09.337Z,98227.13
2022-07-27T11:00:57.646Z,98235.81
2022-07-27T11:03:26.806Z,98233.34
2022-07-27T11:12:01.537Z,98221.53
2022-07-27T11:14:36.627Z,98220.22
2022-07-27T11:17:32.163Z,98220.03
2022-07-27T11:20:06.529Z,98214.97
2022-07-27T11:23:26.685Z,98225.69
2022-07-27T11:25:32.581Z,98214.59
2022-07-27T11:28:07.350Z,98216.25
2022-07-27T11:30:40.577Z,98213.00
2022-07-27T11:33:08.237Z,98213.09
2022-07-27T11:35:41.546Z,98213.00
2022-07-27T11:38:08.682Z,98216.63
2022-07-27T11:40:57.124Z,98212.53
2022-07-27T11:43:45.250Z,98213.91
2022-07-27T11:46:30.666Z,98211.13
2022-07-27T11:49:07.134Z,98205.09
2022-07-27T11:52:00.587Z,98200.56
2022-07-27T11:54:29.786Z,98206.56
2022-07-27T11:57:08.552Z,98196.41
2022-07-27T11:59:46.540Z,98203.78
2022-07-27T12:02:17.913Z,98206.09
2022-07-27T12:04:54.399Z,98196.53
2022-07-27T12:07:48.570Z,98191.91
2022-07-27T12:10:16.489Z,98193.59
2022-07-27T12:12:55.552Z,98186.66
2022-07-27T12:15:44.682Z,98183.50
2022-07-27T12:18:15.557Z,98191.63
2022-07-27T12:20:42.317Z,98184.41
2022-07-27T12:23:09.401Z,98183.50
2022-07-27T12:25:43.571Z,98181.59
2022-07-27T12:28:18.158Z,98182.16
2022-07-27T12:30:56.611Z,98180.22
2022-07-27T12:33:35.853Z,98186.25
2022-07-27T12:36:11.562Z,98176.53
2022-07-27T12:38:50.732Z,98171.94
2022-07-27T12:41:36.520Z,98167.53
2022-07-27T12:44:23.538Z,98174.34
2022-07-27T12:47:00.554Z,98175.22
2022-07-27T12:49:46.334Z,98173.56
2022-07-27T12:52:13.358Z,98170.84
2022-07-27T12:54:46.546Z,98172.47
2022-07-27T12:57:13.366Z,98175.19
2022-07-27T12:59:48.547Z,98167.00
2022-07-27T13:02:15.928Z,98171.41
2022-07-27T13:04:49.528Z,98175.75
2022-07-27T13:07:36.569Z,98176.00
2022-07-27T13:10:12.527Z,98176.81
2022-07-27T13:12:39.320Z,98173.84
2022-07-27T13:15:14.550Z,98173.56
2022-07-27T13:17:41.573Z,98173.28
2022-07-27T13:20:17.532Z,98173.00
2022-07-27T13:22:45.414Z,98174.88
2022-07-27T13:25:15.661Z,98181.69
2022-07-27T13:27:51.551Z,98177.53
2022-07-27T13:30:19.032Z,98177.78
2022-07-27T13:32:48.880Z,98184.00
2022-07-27T13:35:23.518Z,98174.22
2022-07-27T13:37:50.222Z,98177.94
2022-07-27T13:40:23.547Z,98180.94
2022-07-27T13:42:50.242Z,98187.06
2022-07-27T13:45:17.194Z,98180.81
2022-07-27T13:47:50.539Z,98183.50
2022-07-27T13:50:19.413Z,98180.22
2022-07-27T13:52:56.550Z,98180.75
2022-07-27T13:55:27.970Z,98173.13
2022-07-27T13:58:01.543Z,98175.09
2022-07-27T14:00:28.343Z,98178.94
2022-07-27T14:03:01.583Z,98168.69
2022-07-27T14:05:28.451Z,98164.63
2022-07-27T14:08:17.524Z,98173.59
2022-07-27T14:10:44.451Z,98174.44
2022-07-27T14:13:19.548Z,98178.31
2022-07-27T14:15:53.130Z,98164.28
2022-07-27T14:18:30.546Z,98173.00
2022-07-27T14:21:06.590Z,98175.19
2022-07-27T14:23:34.329Z,98168.38
2022-07-27T14:26:08.543Z,98169.19
2022-07-27T14:28:43.575Z,98166.44
2022-07-27T14:31:18.661Z,98169.38
2022-07-27T14:33:46.922Z,98167.72
2022-07-27T14:36:20.547Z,98167.66
2022-07-27T14:38:54.894Z,98165.72
2022-07-27T14:41:21.638Z,98170.59
2022-07-27T14:43:48.328Z,98155.06
2022-07-27T14:46:21.604Z,98162.38
2022-07-27T14:49:05.856Z,98167.81
2022-07-27T14:51:39.579Z,98166.00
2022-07-27T14:54:06.612Z,98172.94
2022-07-27T14:56:39.617Z,98166.41
2022-07-27T14:59:12.749Z,98169.09
2022-07-27T15:01:40.868Z,98166.91
2022-07-27T15:04:14.539Z,98167.94
2022-07-27T15:06:41.613Z,98173.88
2022-07-27T15:09:21.591Z,98172.72
2022-07-27T15:12:01.526Z,98169.66
2022-07-27T15:14:28.539Z,98175.84
2022-07-27T15:16:56.062Z,98178.50
2022-07-27T15:19:29.566Z,98182.28
2022-07-27T15:21:56.496Z,98174.38
2022-07-27T15:24:31.055Z,98176.28
2022-07-27T15:26:59.449Z,98179.81
2022-07-27T15:29:32.536Z,98184.44
2022-07-27T15:31:59.514Z,98179.50
2022-07-27T15:34:33.557Z,98181.38
2022-07-27T15:37:00.262Z,98183.78
2022-07-27T15:39:33.532Z,98184.28
2022-07-27T15:42:06.531Z,98177.94
2022-07-27T15:44:33.739Z,98178.41
2022-07-27T15:47:07.585Z,98175.38
2022-07-27T15:49:34.504Z,98174.53
2022-07-27T15:52:09.049Z,98162.28
2022-07-27T15:54:42.170Z,98177.22
2022-07-27T15:57:18.552Z,98169.88
2022-07-27T15:59:51.513Z,98163.31
2022-07-27T16:02:24.635Z,98173.38
2022-07-27T16:04:58.520Z,98164.94
2022-07-27T16:07:41.736Z,98171.81
2022-07-27T16:10:22.525Z,98160.22
2022-07-27T16:12:49.837Z,98165.25
2022-07-27T16:15:23.545Z,98154.44
2022-07-27T16:17:56.534Z,98156.66
2022-07-27T16:20:29.556Z,98172.38
2022-07-27T16:22:56.195Z,98167.88
2022-07-27T16:25:53.307Z,98175.63
2022-07-27T16:28:16.300Z,98174.81
2022-07-27T16:30:49.529Z,98171.94
2022-07-27T16:33:16.518Z,98174.47
2022-07-27T16:35:44.191Z,98176.03
2022-07-27T16:38:18.512Z,98178.84
2022-07-27T16:40:45.205Z,98183.69
2022-07-27T16:43:18.579Z,98184.66
2022-07-27T16:45:45.530Z,98179.75
2022-07-27T16:48:19.572Z,98179.75
2022-07-27T16:50:46.435Z,98172.63
2022-07-27T16:53:13.126Z,98180.13
2022-07-27T16:55:46.540Z,98182.84
2022-07-27T16:58:13.491Z,98187.72
2022-07-27T17:00:46.536Z,98176.28
2022-07-27T17:03:13.226Z,98190.84
2022-07-27T17:05:40.058Z,98191.31
2022-07-27T17:08:34.737Z,98191.16
2022-07-27T17:11:02.363Z,98197.59
2022-07-27T17:13:49.220Z,98199.41
2022-07-27T17:16:16.966Z,98205.34
2022-07-27T17:18:50.567Z,98211.59
2022-07-27T17:21:17.340Z,98218.91
2022-07-27T17:23:51.530Z,98227.03
2022-07-27T17:26:18.333Z,98228.34
2022-07-27T17:28:51.527Z,98232.63
2022-07-27T17:31:21.082Z,98238.81
2022-07-27T17:33:54.591Z,98231.16
2022-07-27T17:36:28.606Z,98230.47
2022-07-27T17:38:55.574Z,98237.13
2022-07-27T17:41:29.534Z,98244.69
2022-07-27T17:43:56.697Z,98245.78
2022-07-27T17:46:25.013Z,98241.91
2022-07-27T17:48:59.604Z,98242.88
2022-07-27T17:51:32.595Z,98247.13
2022-07-27T17:54:00.797Z,98243.16
2022-07-27T17:56:34.505Z,98252.25
2022-07-27T17:59:20.480Z,98246.66
2022-07-27T18:01:54.805Z,98251.00
2022-07-27T18:04:21.678Z,98249.28
2022-07-27T18:06:54.640Z,98250.72
2022-07-27T18:09:28.053Z,98253.06
2022-07-27T18:12:01.580Z,98257.78
2022-07-27T18:14:28.489Z,98262.19
2022-07-27T18:17:03.545Z,98265.63
2022-07-27T18:19:30.369Z,98269.19
2022-07-27T18:21:57.459Z,98264.75
2022-07-27T18:24:30.541Z,98261.88
2022-07-27T18:26:59.471Z,98255.78
2022-07-27T18:29:26.227Z,98256.50
2022-07-27T18:31:59.517Z,98265.91
2022-07-27T18:34:26.294Z,98265.22
2022-07-27T18:36:59.725Z,98269.00
2022-07-27T18:39:33.988Z,98273.00
2022-07-27T18:42:10.498Z,98281.00
2022-07-27T18:44:43.534Z,98286.63
2022-07-27T18:47:16.606Z,98290.38
2022-07-27T18:49:49.502Z,98299.00
2022-07-27T18:52:16.239Z,98299.66
2022-07-27T18:54:50.638Z,98299.31
2022-07-27T18:57:17.755Z,98313.97
2022-07-27T18:59:47.378Z,98314.34
2022-07-27T19:02:23.600Z,98311.44
2022-07-27T19:04:50.781Z,98317.38
2022-07-27T19:07:31.508Z,98331.47
2022-07-27T19:10:06.500Z,98339.94
2022-07-27T19:12:39.499Z,98346.16
2022-07-27T19:15:14.502Z,98348.50
2022-07-27T19:17:47.575Z,98353.75
2022-07-27T19:20:24.518Z,98352.13
2022-07-27T19:22:51.548Z,98354.00
2022-07-27T19:25:25.543Z,98363.09
2022-07-27T19:27:52.694Z,98361.88
2022-07-27T19:30:25.524Z,98361.75
2022-07-27T19:32:58.534Z,98366.78
2022-07-27T19:35:31.491Z,98371.38
2022-07-27T19:37:58.221Z,98373.22
2022-07-27T19:40:46.747Z,98372.28
2022-07-27T19:43:15.254Z,98383.94
2022-07-27T19:45:49.519Z,98378.38
2022-07-27T19:48:16.279Z,98386.94
2022-07-27T19:50:49.554Z,98382.91
2022-07-27T19:53:16.282Z,98378.78
2022-07-27T19:55:49.525Z,98382.97
2022-07-27T19:58:23.733Z,98390.88
2022-07-27T20:00:50.642Z,98393.03
2022-07-27T20:03:27.562Z,98391.41
2022-07-27T20:05:54.570Z,98397.19
2022-07-27T20:08:28.500Z,98394.47
2022-07-27T20:11:09.493Z,98400.53
2022-07-27T20:13:42.553Z,98404.53
2022-07-27T20:16:15.624Z,98412.63
2022-07-27T20:18:42.392Z,98407.22
2022-07-27T20:21:22.803Z,98413.44
2022-07-27T20:24:00.492Z,98404.16
2022-07-27T20:26:33.785Z,98417.28
2022-07-27T20:29:07.503Z,98409.84
2022-07-27T20:31:34.324Z,98413.19
2022-07-27T20:34:01.195Z,98410.97
2022-07-27T20:36:34.484Z,98414.91
2022-07-27T20:39:01.270Z,98418.28
2022-07-27T20:41:34.930Z,98418.06
2022-07-27T20:44:01.866Z,98407.88
2022-07-27T20:46:35.543Z,98402.00
2022-07-27T20:49:02.395Z,98403.97
2022-07-27T20:51:29.160Z,98410.88
2022-07-27T20:54:03.523Z,98405.91
2022-07-27T20:56:30.201Z,98409.66
2022-07-27T20:59:03.478Z,98404.50
2022-07-27T21:01:35.698Z,98403.44
2022-07-27T21:04:09.486Z,98414.91
2022-07-27T21:06:36.360Z,98410.63
2022-07-27T21:09:16.807Z,98409.78
2022-07-27T21:11:50.586Z,98418.34
2022-07-27T21:14:24.497Z,98417.34
2022-07-27T21:16:51.473Z,98424.47
2022-07-27T21:19:27.480Z,98424.84
2022-07-27T21:21:54.259Z,98431.50
2022-07-27T21:24:29.516Z,98435.97
2022-07-27T21:26:58.707Z,98440.56
2022-07-27T21:29:34.554Z,98446.16
2022-07-27T21:32:02.093Z,98438.72
2022-07-27T21:34:28.984Z,98451.56
2022-07-27T21:37:02.487Z,98457.97
2022-07-27T21:39:29.575Z,98462.00
2022-07-27T21:42:02.703Z,98466.75
2022-07-27T21:44:29.965Z,98465.78
2022-07-27T21:47:03.501Z,98467.44
2022-07-27T21:49:36.478Z,98464.94
2022-07-27T21:52:09.487Z,98464.06
2022-07-27T21:54:42.496Z,98461.53
2022-07-27T21:57:09.153Z,98463.16
2022-07-27T21:59:35.826Z,98470.59
2022-07-27T22:02:09.473Z,98471.91
2022-07-27T22:04:36.309Z,98474.00
2022-07-27T22:07:19.198Z,98470.72
2022-07-27T22:09:59.457Z,98474.75
2022-07-27T22:12:32.781Z,98480.16
2022-07-27T22:15:06.531Z,98477.91
2022-07-27T22:17:33.441Z,98477.31
2022-07-27T22:20:06.629Z,98474.75
2022-07-27T22:22:39.457Z,98473.72
2022-07-27T22:25:06.497Z,98478.31
2022-07-27T22:27:39.494Z,98476.59
2022-07-27T22:30:07.104Z,98474.72
2022-07-27T22:32:41.476Z,98470.59
2022-07-27T22:35:08.702Z,98468.06
2022-07-27T22:37:42.470Z,98471.03
2022-07-27T22:40:09.712Z,98478.13
2022-07-27T22:42:43.977Z,98476.09
2022-07-27T22:45:11.495Z,98481.50
2022-07-27T22:47:38.258Z,98484.81
2022-07-27T22:50:14.009Z,98481.50
2022-07-27T22:52:51.496Z,98478.63
2022-07-27T22:55:18.248Z,98487.13
2022-07-27T22:57:53.456Z,98493.38
2022-07-27T23:00:26.477Z,98482.75
2022-07-27T23:02:53.239Z,98491.22
2022-07-27T23:05:27.700Z,98498.53
2022-07-27T23:08:14.483Z,98499.38
2022-07-27T23:10:47.045Z,98493.38
2022-07-27T23:13:22.618Z,98497.28
2022-07-27T23:15:50.074Z,98491.56
2022-07-27T23:18:23.498Z,98494.06
2022-07-27T23:20:50.734Z,98501.13
2022-07-27T23:23:26.026Z,98503.22
2022-07-27T23:25:54.584Z,98496.75
2022-07-27T23:28:28.462Z,98504.03
2022-07-27T23:30:55.687Z,98502.16
2022-07-27T23:33:29.452Z,98500.94
2022-07-27T23:35:56.538Z,98504.44
2022-07-27T23:38:29.455Z,98500.06
2022-07-27T23:41:02.588Z,98501.97
2022-07-27T23:43:35.476Z,98486.25
2022-07-27T23:46:02.949Z,98493.72
2022-07-27T23:48:36.531Z,98488.13
2022-07-27T23:51:03.635Z,98481.28
2022-07-27T23:53:36.448Z,98488.13
2022-07-27T23:56:03.201Z,98493.31
2022-07-27T23:58:36.620Z,98494.97
